Time;durP1;ratioP1;P1;durP2;ratioP2;P2;SDS_P1;SDS_P2;PMS_P1;PMS_P2;Temp;Humidity;BMP_temperature;BMP_pressure;BME280_temperature;BME280_humidity;BME280_pressure;Samples;Min_cycle;Max_cycle;Signal;HPM_P1;HPM_P2
2022/09/21 00:00:45;;;;;;;7.97;3.38;;;8.60;99.90;;;;;;5983130;23;20027;-92
2022/09/21 00:03:11;;;;;;;7.70;3.47;;;8.60;99.90;;;;;;6007941;23;20020;-93
2022/09/21 00:05:37;;;;;;;5.80;2.22;;;8.60;99.90;;;;;;6008415;23;20022;-91
2022/09/21 00:08:04;;;;;;;7.25;3.75;;;8.50;99.90;;;;;;5983427;23;20083;-93
2022/09/21 00:10:30;;;;;;;7.18;3.65;;;8.50;99.90;;;;;;6007471;23;20020;-93
2022/09/21 00:12:57;;;;;;;6.97;3.40;;;8.50;99.90;;;;;;5983886;23;20027;-92
2022/09/21 00:15:24;;;;;;;10.38;3.83;;;8.50;99.90;;;;;;6010289;23;20051;-92
2022/09/21 00:17:53;;;;;;;6.25;2.13;;;8.50;99.90;;;;;;6011361;23;20169;-92
2022/09/21 00:20:20;;;;;;;6.57;3.15;;;8.40;99.90;;;;;;5989040;23;20287;-93
2022/09/21 00:22:47;;;;;;;6.32;2.00;;;8.40;99.90;;;;;;5988190;23;20076;-92
2022/09/21 00:25:13;;;;;;;7.32;3.72;;;8.30;99.90;;;;;;6010832;23;20064;-92
2022/09/21 00:27:40;;;;;;;7.25;2.58;;;8.30;99.90;;;;;;6008867;23;20018;-93
2022/09/21 00:30:07;;;;;;;7.22;3.40;;;8.20;99.90;;;;;;6009379;23;20588;-91
2022/09/21 00:32:35;;;;;;;7.82;3.55;;;8.30;99.90;;;;;;5985774;23;20015;-92
2022/09/21 00:35:01;;;;;;;7.18;3.55;;;8.30;99.90;;;;;;5987094;23;20067;-91
2022/09/21 00:37:28;;;;;;;9.13;4.03;;;8.30;99.90;;;;;;6013424;23;20095;-93
2022/09/21 00:39:54;;;;;;;4.72;2.13;;;8.30;99.90;;;;;;5992322;23;20415;-93
2022/09/21 00:42:26;;;;;;;8.73;3.60;;;8.20;99.90;;;;;;6015295;23;20015;-92
2022/09/21 00:44:52;;;;;;;6.80;2.30;;;8.20;99.90;;;;;;5993553;23;20307;-94
2022/09/21 00:47:32;;;;;;;4.10;1.88;;;8.10;99.90;;;;;;6027139;23;20004;-93
2022/09/21 00:49:59;;;;;;;6.07;2.50;;;8.00;99.90;;;;;;6030220;23;20031;-93
2022/09/21 00:52:30;;;;;;;7.68;3.72;;;8.00;99.90;;;;;;6024853;23;20024;-94
2022/09/21 00:55:04;;;;;;;4.57;2.08;;;7.90;99.90;;;;;;6016167;23;20016;-92
2022/09/21 00:57:31;;;;;;;8.35;3.50;;;7.90;99.90;;;;;;6014268;23;20047;-93
2022/09/21 01:00:03;;;;;;;6.95;2.97;;;7.90;99.90;;;;;;6008046;23;20442;-93
2022/09/21 01:02:29;;;;;;;6.25;2.45;;;7.90;99.90;;;;;;6009317;23;20114;-92
2022/09/21 01:04:56;;;;;;;7.63;3.90;;;7.80;99.90;;;;;;6008579;23;20110;-92
2022/09/21 01:07:28;;;;;;;7.40;2.00;;;7.90;99.90;;;;;;5983914;23;20079;-92
2022/09/21 01:09:59;;;;;;;8.25;3.60;;;7.90;99.90;;;;;;6007615;23;20114;-93
2022/09/21 01:12:47;;;;;;;7.53;3.15;;;7.90;99.90;;;;;;6008353;23;20019;-93
2022/09/21 01:15:22;;;;;;;8.00;3.60;;;7.90;99.90;;;;;;5984474;23;20015;-93
2022/09/21 01:18:09;;;;;;;7.22;3.45;;;7.90;99.90;;;;;;5984397;23;20024;-93
2022/09/21 01:20:35;;;;;;;7.72;3.28;;;7.90;99.90;;;;;;5985039;23;20071;-92
2022/09/21 01:23:04;;;;;;;7.65;3.35;;;8.00;99.90;;;;;;5994053;23;20030;-93
2022/09/21 01:25:56;;;;;;;7.30;3.50;;;7.90;99.90;;;;;;6008861;23;20028;-94
2022/09/21 01:28:30;;;;;;;4.65;1.83;;;7.90;99.90;;;;;;5987911;23;20076;-93
2022/09/21 01:31:04;;;;;;;3.85;1.70;;;7.70;99.90;;;;;;6008716;23;20047;-93
2022/09/21 01:33:47;;;;;;;6.68;2.58;;;7.70;99.90;;;;;;6008024;23;20429;-92
2022/09/21 01:36:17;;;;;;;7.38;2.15;;;7.60;99.90;;;;;;5985721;23;20043;-93
2022/09/21 01:38:54;;;;;;;5.25;1.75;;;7.60;99.90;;;;;;6008991;23;20023;-93
2022/09/21 01:41:24;;;;;;;8.27;4.00;;;7.60;99.90;;;;;;6007597;23;20047;-92
2022/09/21 01:43:57;;;;;;;5.97;1.95;;;7.60;99.90;;;;;;6007820;23;20064;-93
2022/09/21 01:46:28;;;;;;;6.82;2.17;;;7.60;99.90;;;;;;6007933;23;20020;-93
2022/09/21 01:49:00;;;;;;;9.77;4.43;;;7.40;99.90;;;;;;6008248;23;20020;-93
2022/09/21 01:51:27;;;;;;;6.03;1.88;;;7.50;99.90;;;;;;5984992;23;20234;-94
2022/09/21 01:54:04;;;;;;;7.05;2.75;;;7.50;99.90;;;;;;5984843;23;20020;-94
2022/09/21 01:56:40;;;;;;;4.93;1.95;;;7.40;99.90;;;;;;6006936;23;20019;-94
2022/09/21 01:59:12;;;;;;;6.35;3.22;;;7.40;99.90;;;;;;5984517;23;20012;-94
2022/09/21 02:01:45;;;;;;;8.02;2.45;;;7.40;99.90;;;;;;5982993;23;20015;-93
2022/09/21 02:04:12;;;;;;;6.50;3.50;;;7.30;99.90;;;;;;5983372;23;20031;-93
2022/09/21 02:06:42;;;;;;;8.30;2.42;;;7.40;99.90;;;;;;5983517;23;20038;-95
2022/09/21 02:09:09;;;;;;;8.45;3.90;;;7.30;99.90;;;;;;5984055;23;20016;-94
2022/09/21 02:11:37;;;;;;;5.47;2.25;;;7.50;99.90;;;;;;5984329;23;20446;-93
2022/09/21 02:14:07;;;;;;;7.90;3.80;;;7.40;99.90;;;;;;5986832;23;20016;-94
2022/09/21 02:16:55;;;;;;;6.72;2.10;;;7.40;99.90;;;;;;6009514;23;20401;-94
2022/09/21 02:19:39;;;;;;;5.07;2.20;;;7.30;99.90;;;;;;6010308;23;20008;-93
2022/09/21 02:22:12;;;;;;;5.35;1.70;;;7.20;99.90;;;;;;5987070;23;20016;-93
2022/09/21 02:24:40;;;;;;;6.05;1.88;;;7.00;99.90;;;;;;5986369;23;20012;-92
2022/09/21 02:27:27;;;;;;;6.93;3.30;;;7.00;99.90;;;;;;6009917;23;20054;-93
2022/09/21 02:30:00;;;;;;;7.85;2.63;;;7.10;99.90;;;;;;5986051;23;20023;-93
2022/09/21 02:32:56;;;;;;;4.93;1.90;;;7.10;99.90;;;;;;6009117;23;20166;-92
2022/09/21 02:36:00;;;;;;;6.95;2.28;;;7.00;99.90;;;;;;6008347;23;20064;-93
2022/09/21 02:38:51;;;;;;;7.60;2.10;;;7.00;99.90;;;;;;6009663;23;20023;-94
2022/09/21 02:41:38;;;;;;;8.43;3.70;;;6.90;99.90;;;;;;5986154;23;20020;-93
2022/09/21 02:44:17;;;;;;;5.85;2.08;;;7.00;99.90;;;;;;5985604;23;20026;-94
2022/09/21 02:47:07;;;;;;;7.22;2.47;;;6.90;99.90;;;;;;6008226;23;20028;-93
2022/09/21 02:49:37;;;;;;;7.22;2.65;;;6.90;99.90;;;;;;6009299;23;20012;-93
2022/09/21 02:52:13;;;;;;;5.15;2.05;;;6.80;99.90;;;;;;6010253;23;20015;-93
2022/09/21 02:54:43;;;;;;;6.63;2.42;;;6.80;99.90;;;;;;6009593;23;20016;-94
2022/09/21 02:57:11;;;;;;;6.50;2.10;;;6.80;99.90;;;;;;5986935;23;20337;-93
2022/09/21 02:59:38;;;;;;;6.28;2.42;;;6.80;99.90;;;;;;5985246;23;20008;-94
2022/09/21 03:02:05;;;;;;;7.57;3.50;;;6.80;99.90;;;;;;6008694;23;20023;-94
2022/09/21 03:04:32;;;;;;;6.38;2.67;;;6.90;99.90;;;;;;5985360;23;20031;-92
2022/09/21 03:06:57;;;;;;;6.18;2.20;;;6.80;99.90;;;;;;5986116;23;20015;-93
2022/09/21 03:09:23;;;;;;;7.97;3.53;;;6.80;99.90;;;;;;6010036;23;20019;-93
2022/09/21 03:11:50;;;;;;;5.55;2.05;;;6.80;99.90;;;;;;5984372;23;20083;-94
2022/09/21 03:14:18;;;;;;;5.95;2.10;;;6.80;99.90;;;;;;6009135;23;20391;-93
2022/09/21 03:16:44;;;;;;;6.95;2.83;;;6.70;99.90;;;;;;6008690;23;20051;-94
2022/09/21 03:19:11;;;;;;;3.95;1.63;;;6.80;99.90;;;;;;5985117;23;20092;-94
2022/09/21 03:21:37;;;;;;;4.43;1.75;;;6.70;99.90;;;;;;5984656;23;20008;-94
2022/09/21 03:24:02;;;;;;;5.97;1.70;;;6.60;99.90;;;;;;5984958;23;20148;-94
2022/09/21 03:26:28;;;;;;;5.88;2.35;;;6.50;99.90;;;;;;5985317;23;20528;-94
2022/09/21 03:28:54;;;;;;;4.47;1.90;;;6.50;99.90;;;;;;5984553;23;20319;-93
2022/09/21 03:31:20;;;;;;;6.55;2.30;;;6.50;99.90;;;;;;6008181;23;20090;-93
2022/09/21 03:33:46;;;;;;;5.53;2.03;;;6.60;99.90;;;;;;5985707;23;20488;-94
2022/09/21 03:36:11;;;;;;;4.68;1.77;;;6.50;99.90;;;;;;5988691;23;20016;-93
2022/09/21 03:38:37;;;;;;;6.95;3.10;;;6.50;99.90;;;;;;6004766;23;20014;-94
2022/09/21 03:41:04;;;;;;;4.90;2.28;;;6.50;99.90;;;;;;6027880;23;20278;-93
2022/09/21 03:43:30;;;;;;;5.57;2.05;;;6.50;99.90;;;;;;5986838;23;20000;-94
2022/09/21 03:45:56;;;;;;;4.25;1.77;;;6.50;99.90;;;;;;5987354;23;20016;-93
2022/09/21 03:48:22;;;;;;;4.57;1.60;;;6.50;99.90;;;;;;6010783;23;20019;-93
2022/09/21 03:50:49;;;;;;;6.20;1.95;;;6.40;99.90;;;;;;5985681;23;20016;-94
2022/09/21 03:53:15;;;;;;;6.65;2.30;;;6.40;99.90;;;;;;5986440;23;20020;-93
2022/09/21 03:55:41;;;;;;;4.80;2.10;;;6.40;99.90;;;;;;5986794;23;20015;-95
2022/09/21 03:58:07;;;;;;;4.57;1.90;;;6.40;99.90;;;;;;5986011;23;20075;-92
2022/09/21 04:00:34;;;;;;;5.78;2.10;;;6.40;99.90;;;;;;5986326;23;20173;-92
2022/09/21 04:03:00;;;;;;;6.07;2.10;;;6.40;99.90;;;;;;5987838;23;20020;-92
2022/09/21 04:05:27;;;;;;;6.22;1.92;;;6.30;99.90;;;;;;5989934;23;20019;-93
2022/09/21 04:07:54;;;;;;;4.80;2.22;;;6.30;99.90;;;;;;6014208;23;20016;-93
2022/09/21 04:10:32;;;;;;;5.53;2.15;;;6.30;99.90;;;;;;5988172;23;20019;-94
2022/09/21 04:13:00;;;;;;;4.68;2.10;;;6.30;99.90;;;;;;6009328;23;20012;-93
2022/09/21 04:15:26;;;;;;;6.95;1.92;;;6.30;99.90;;;;;;6010225;23;20792;-94
2022/09/21 04:17:52;;;;;;;5.53;1.92;;;6.20;99.90;;;;;;5987237;23;20098;-93
2022/09/21 04:20:19;;;;;;;6.50;2.20;;;6.30;99.90;;;;;;6011533;23;20011;-94
2022/09/21 04:22:46;;;;;;;5.28;1.90;;;6.20;99.90;;;;;;5991153;23;20012;-93
2022/09/21 04:25:12;;;;;;;4.50;1.45;;;6.10;99.90;;;;;;6016823;23;20026;-93
2022/09/21 04:27:39;;;;;;;5.53;3.00;;;6.10;99.90;;;;;;6020000;23;20023;-93
2022/09/21 04:30:05;;;;;;;4.95;1.92;;;6.20;99.90;;;;;;5992917;23;20132;-93
2022/09/21 04:32:31;;;;;;;4.30;1.98;;;6.20;99.90;;;;;;6012862;23;20019;-93
2022/09/21 04:34:57;;;;;;;5.57;1.88;;;6.10;99.90;;;;;;5988348;23;20048;-93
2022/09/21 04:37:22;;;;;;;3.50;1.60;;;6.10;99.90;;;;;;5987194;23;20054;-94
2022/09/21 04:39:48;;;;;;;7.65;3.10;;;6.10;99.90;;;;;;5985842;23;20018;-93
2022/09/21 04:42:14;;;;;;;4.50;2.20;;;6.10;99.90;;;;;;5987471;23;20065;-93
2022/09/21 04:44:39;;;;;;;4.13;1.80;;;6.10;99.90;;;;;;6012286;23;20022;-94
2022/09/21 04:47:05;;;;;;;4.38;1.77;;;6.00;99.90;;;;;;5989505;23;20020;-93
2022/09/21 04:49:31;;;;;;;5.82;2.15;;;6.00;99.90;;;;;;6012519;23;20019;-94
2022/09/21 04:51:57;;;;;;;5.55;2.05;;;5.90;99.90;;;;;;5988604;23;20022;-93
2022/09/21 04:54:22;;;;;;;5.68;1.85;;;5.90;99.90;;;;;;5989128;23;20098;-94
2022/09/21 04:56:48;;;;;;;3.42;1.67;;;5.80;99.90;;;;;;5989642;23;20019;-93
2022/09/21 04:59:14;;;;;;;6.65;3.35;;;5.90;99.90;;;;;;5992691;23;20481;-94
2022/09/21 05:01:40;;;;;;;5.10;2.22;;;5.90;99.90;;;;;;5991522;23;20047;-94
2022/09/21 05:04:05;;;;;;;4.43;1.88;;;5.90;99.90;;;;;;5989017;23;20023;-93
2022/09/21 05:06:32;;;;;;;5.50;1.90;;;5.80;99.90;;;;;;5987828;23;20391;-93
2022/09/21 05:11:44;;;;;;;5.47;2.42;;;5.80;99.90;;;;;;6003889;23;20015;-91
2022/09/21 05:14:10;;;;;;;5.25;2.42;;;5.80;99.90;;;;;;6005251;23;20076;-90
2022/09/21 05:16:36;;;;;;;5.15;2.25;;;5.80;99.90;;;;;;5980268;23;20026;-91
2022/09/21 05:19:02;;;;;;;4.50;1.95;;;5.80;99.90;;;;;;6008721;23;20012;-93
2022/09/21 05:21:29;;;;;;;4.65;2.05;;;5.80;99.90;;;;;;6005606;23;20073;-91
2022/09/21 05:23:56;;;;;;;6.47;2.47;;;5.80;99.90;;;;;;5981288;23;20067;-91
2022/09/21 05:26:21;;;;;;;4.43;2.00;;;5.80;99.90;;;;;;5981571;23;20015;-93
2022/09/21 05:28:47;;;;;;;6.72;3.53;;;5.80;99.90;;;;;;5983711;23;20457;-94
2022/09/21 05:31:16;;;;;;;7.32;2.50;;;5.80;99.90;;;;;;6005278;23;20043;-91
2022/09/21 05:34:12;;;;;;;6.35;2.28;;;5.80;99.90;;;;;;5982744;23;20015;-92
2022/09/21 05:37:10;;;;;;;6.10;2.67;;;5.80;99.90;;;;;;5963091;23;20026;-92
2022/09/21 05:39:36;;;;;;;7.75;2.78;;;5.80;99.90;;;;;;6028710;23;20354;-91
2022/09/21 05:42:02;;;;;;;4.90;2.38;;;5.80;99.90;;;;;;5980805;23;20019;-91
2022/09/21 05:44:28;;;;;;;5.80;2.35;;;5.80;99.90;;;;;;6005903;23;20067;-92
2022/09/21 05:47:20;;;;;;;6.63;2.45;;;5.80;99.90;;;;;;6005958;23;20020;-91
2022/09/21 05:50:24;;;;;;;7.63;2.60;;;5.80;99.90;;;;;;6011014;23;20051;-91
2022/09/21 05:52:55;;;;;;;7.22;2.42;;;5.90;99.90;;;;;;6022088;23;20024;-91
2022/09/21 05:56:02;;;;;;;7.13;2.10;;;5.90;99.90;;;;;;5989861;23;20023;-91
2022/09/21 05:58:50;;;;;;;5.93;2.65;;;5.90;99.90;;;;;;6006801;23;20022;-92
2022/09/21 06:01:31;;;;;;;5.85;2.45;;;5.90;99.90;;;;;;6006768;23;20020;-92
2022/09/21 06:03:58;;;;;;;4.55;2.08;;;5.90;99.90;;;;;;5984207;23;20052;-94
2022/09/21 06:06:24;;;;;;;7.78;2.85;;;5.90;99.90;;;;;;5988076;23;20019;-93
2022/09/21 06:08:50;;;;;;;7.00;2.90;;;6.00;99.90;;;;;;5987505;23;20020;-93
2022/09/21 06:11:16;;;;;;;6.97;2.78;;;6.10;99.90;;;;;;5983717;23;20015;-92
2022/09/21 06:13:42;;;;;;;7.07;2.75;;;6.10;99.90;;;;;;5984055;23;20083;-92
2022/09/21 06:16:07;;;;;;;4.57;2.13;;;6.20;99.90;;;;;;6005854;23;20015;-89
2022/09/21 06:18:38;;;;;;;6.50;2.85;;;6.10;99.90;;;;;;5980706;23;20336;-91
2022/09/21 06:21:04;;;;;;;6.22;2.75;;;6.30;99.90;;;;;;5981186;23;20389;-89
2022/09/21 06:23:30;;;;;;;6.63;2.67;;;6.30;99.90;;;;;;6004625;23;20081;-91
2022/09/21 06:25:56;;;;;;;6.35;2.22;;;6.30;99.90;;;;;;6004655;23;20020;-91
2022/09/21 06:28:22;;;;;;;8.05;4.72;;;6.50;99.90;;;;;;6007093;23;20038;-92
2022/09/21 06:30:52;;;;;;;7.18;2.83;;;6.50;99.90;;;;;;5982437;23;20022;-92
2022/09/21 06:33:20;;;;;;;7.50;3.58;;;6.60;99.90;;;;;;6005762;23;20020;-89
2022/09/21 06:36:06;;;;;;;6.60;2.83;;;6.70;99.90;;;;;;6007246;23;20016;-92
2022/09/21 06:38:34;;;;;;;6.93;3.55;;;6.70;99.90;;;;;;6009060;23;20462;-94
2022/09/21 06:41:04;;;;;;;8.63;3.33;;;6.80;99.90;;;;;;6011205;23;20023;-94
2022/09/21 06:43:31;;;;;;;8.85;3.63;;;6.90;99.90;;;;;;5988379;23;20020;-95
2022/09/21 06:46:01;;;;;;;7.07;3.25;;;7.00;99.90;;;;;;5990592;23;20023;-95
2022/09/21 06:48:28;;;;;;;7.03;3.17;;;7.10;99.90;;;;;;5987758;23;20449;-94
2022/09/21 06:50:58;;;;;;;7.15;3.17;;;7.20;99.90;;;;;;5985735;23;20383;-94
2022/09/21 06:53:25;;;;;;;7.70;3.20;;;7.30;99.90;;;;;;5984781;23;20016;-93
2022/09/21 06:55:51;;;;;;;6.70;3.15;;;7.30;99.90;;;;;;5984819;23;20046;-93
2022/09/21 06:58:17;;;;;;;9.23;3.40;;;7.40;99.90;;;;;;5985015;23;20039;-94
2022/09/21 07:00:43;;;;;;;8.57;4.50;;;7.40;99.90;;;;;;5986932;23;20067;-93
2022/09/21 07:03:12;;;;;;;8.07;4.78;;;7.60;99.90;;;;;;6009362;23;20028;-93
2022/09/21 07:05:38;;;;;;;9.43;4.47;;;7.70;99.90;;;;;;5986113;23;20063;-93
2022/09/21 07:08:05;;;;;;;7.30;2.97;;;7.90;99.90;;;;;;5985765;23;20023;-93
2022/09/21 07:10:31;;;;;;;8.90;3.03;;;7.90;99.90;;;;;;5988091;23;20052;-92
2022/09/21 07:13:03;;;;;;;7.28;3.03;;;8.00;99.90;;;;;;5987681;23;20050;-93
2022/09/21 07:15:30;;;;;;;9.40;4.80;;;8.00;99.90;;;;;;5986169;23;20044;-94
2022/09/21 07:17:55;;;;;;;9.15;4.68;;;8.20;99.90;;;;;;5986625;23;20052;-93
2022/09/21 07:20:21;;;;;;;9.02;4.57;;;8.40;99.90;;;;;;6007806;23;20087;-90
2022/09/21 07:22:47;;;;;;;10.77;4.32;;;8.50;99.90;;;;;;6006720;23;20008;-93
2022/09/21 07:25:13;;;;;;;8.68;4.38;;;8.60;99.90;;;;;;5986386;23;20063;-90
2022/09/21 07:27:39;;;;;;;7.95;3.15;;;8.70;99.90;;;;;;6009458;23;20064;-94
2022/09/21 07:30:06;;;;;;;11.73;4.05;;;8.70;99.90;;;;;;6009247;23;20016;-94
2022/09/21 07:32:32;;;;;;;11.52;4.60;;;8.90;99.90;;;;;;6008815;23;20094;-94
2022/09/21 07:34:57;;;;;;;11.27;4.68;;;8.90;99.90;;;;;;5984567;23;20043;-91
2022/09/21 07:37:24;;;;;;;22.13;6.43;;;9.10;99.90;;;;;;6006458;23;20019;-92
2022/09/21 07:39:51;;;;;;;32.75;7.88;;;9.20;99.90;;;;;;6006753;23;20087;-92
2022/09/21 07:42:19;;;;;;;26.42;7.07;;;9.30;99.90;;;;;;5985073;23;20023;-93
2022/09/21 07:44:45;;;;;;;23.13;7.03;;;9.40;99.90;;;;;;5984726;23;20081;-92
2022/09/21 07:47:12;;;;;;;23.17;7.35;;;9.60;99.90;;;;;;5983346;23;20023;-92
2022/09/21 07:49:38;;;;;;;10.90;4.82;;;9.70;99.90;;;;;;6008653;23;20027;-90
2022/09/21 07:52:04;;;;;;;11.20;5.32;;;9.80;99.90;;;;;;6009904;23;20016;-90
2022/09/21 07:54:31;;;;;;;12.05;6.07;;;9.80;99.90;;;;;;6009449;23;20011;-91
2022/09/21 07:59:40;;;;;;;15.00;6.05;;;10.10;99.90;;;;;;6008317;23;20019;-90
2022/09/21 08:02:06;;;;;;;13.52;5.70;;;10.20;99.90;;;;;;6007893;23;20030;-89
2022/09/21 08:04:32;;;;;;;12.52;4.90;;;10.30;99.90;;;;;;6006958;23;20517;-91
2022/09/21 08:06:58;;;;;;;12.52;4.47;;;10.40;99.90;;;;;;6001255;23;20035;-91
2022/09/21 08:09:23;;;;;;;10.25;4.78;;;10.50;99.90;;;;;;6025171;23;20360;-91
2022/09/21 08:11:50;;;;;;;11.18;4.80;;;10.50;99.90;;;;;;6010083;23;20027;-90
2022/09/21 08:14:19;;;;;;;12.98;4.53;;;10.70;99.90;;;;;;5982675;23;20027;-89
2022/09/21 08:16:46;;;;;;;11.10;4.93;;;10.60;99.90;;;;;;6005776;23;20011;-91
2022/09/21 08:19:16;;;;;;;13.48;4.32;;;10.90;99.90;;;;;;6009667;23;20015;-93
2022/09/21 08:21:42;;;;;;;11.18;4.10;;;10.90;99.90;;;;;;6006527;23;20019;-93
2022/09/21 08:24:08;;;;;;;9.98;4.00;;;11.00;99.90;;;;;;6006497;23;20099;-95
2022/09/21 08:26:34;;;;;;;10.40;4.25;;;11.10;99.90;;;;;;5985629;23;20028;-93
2022/09/21 08:29:00;;;;;;;11.38;4.80;;;11.20;99.90;;;;;;5984348;23;20088;-92
2022/09/21 08:31:26;;;;;;;10.30;4.47;;;11.20;99.90;;;;;;6010283;23;20028;-94
2022/09/21 08:33:54;;;;;;;13.27;5.20;;;11.30;99.90;;;;;;6008292;23;20506;-94
2022/09/21 08:36:19;;;;;;;10.70;4.43;;;11.40;99.90;;;;;;5986437;23;20016;-95
2022/09/21 08:38:46;;;;;;;11.05;4.63;;;11.40;99.90;;;;;;5986778;23;20086;-94
2022/09/21 08:41:40;;;;;;;14.70;3.88;;;11.50;99.90;;;;;;6009574;23;20023;-92
2022/09/21 08:44:23;;;;;;;12.98;4.05;;;11.60;99.90;;;;;;6035861;23;20055;-94
2022/09/21 08:47:05;;;;;;;11.32;2.58;;;11.70;99.90;;;;;;6010620;23;20024;-94
2022/09/21 08:49:34;;;;;;;10.48;3.10;;;11.80;99.90;;;;;;5985512;23;20075;-93
2022/09/21 08:52:03;;;;;;;10.68;2.90;;;11.90;99.90;;;;;;6010667;23;20098;-93
2022/09/21 08:54:41;;;;;;;9.02;2.75;;;12.00;99.90;;;;;;6011264;23;20075;-90
2022/09/21 08:57:12;;;;;;;9.85;2.90;;;12.00;99.90;;;;;;6032752;23;20023;-92
2022/09/21 08:59:43;;;;;;;;;;;12.10;99.90;;;;;;6009697;23;20016;-92
2022/09/21 09:02:49;;;;;;;8.85;2.30;;;12.10;99.90;;;;;;6011644;23;19985;-92
2022/09/21 09:05:40;;;;;;;10.15;2.70;;;12.20;99.90;;;;;;5991517;23;20023;-95
2022/09/21 09:08:12;;;;;;;;;;;12.40;99.90;;;;;;6022604;23;20094;-93
2022/09/21 09:10:40;;;;;;;;;;;12.40;99.90;;;;;;6001530;23;19921;-93
2022/09/21 09:13:19;;;;;;;10.10;2.38;;;12.40;99.90;;;;;;6013416;23;19962;-92
2022/09/21 09:15:54;;;;;;;9.05;2.15;;;12.40;99.90;;;;;;6006811;23;20454;-92
2022/09/21 09:18:41;;;;;;;10.43;2.58;;;12.50;99.90;;;;;;6007802;23;20145;-92
2022/09/21 09:21:30;;;;;;;8.10;1.77;;;12.70;99.90;;;;;;5983239;23;20019;-92
2022/09/21 09:24:10;;;;;;;8.73;2.10;;;12.80;99.90;;;;;;5983684;23;20016;-92
2022/09/21 09:26:44;;;;;;;8.75;1.83;;;12.80;99.90;;;;;;6007527;23;20020;-93
2022/09/21 09:29:20;;;;;;;7.15;1.52;;;12.90;99.90;;;;;;6007402;23;20016;-93
2022/09/21 09:31:49;;;;;;;8.40;1.80;;;12.90;99.90;;;;;;6006758;23;20019;-93
2022/09/21 09:34:25;;;;;;;8.60;1.55;;;13.00;99.90;;;;;;6007231;23;20027;-93
2022/09/21 09:36:59;;;;;;;7.38;1.55;;;13.10;99.90;;;;;;5985166;23;20024;-92
2022/09/21 09:39:27;;;;;;;7.13;1.40;;;13.20;99.90;;;;;;6006163;23;20011;-91
2022/09/21 09:42:00;;;;;;;7.30;1.40;;;13.30;99.90;;;;;;6004501;23;20144;-89
2022/09/21 09:44:31;;;;;;;6.80;1.23;;;13.30;99.90;;;;;;6006277;23;20026;-91
2022/09/21 09:47:25;;;;;;;6.53;1.33;;;13.40;99.90;;;;;;5982820;23;20090;-91
2022/09/21 09:50:02;;;;;;;8.30;1.50;;;13.50;99.90;;;;;;5983248;23;20083;-92
2022/09/21 09:52:29;;;;;;;5.20;1.35;;;13.60;99.90;;;;;;6007198;23;20060;-93
2022/09/21 09:54:54;;;;;;;8.32;1.38;;;13.60;99.90;;;;;;5989096;23;20067;-91
2022/09/21 09:57:29;;;;;;;8.20;1.27;;;13.60;99.90;;;;;;5990049;23;20327;-91
2022/09/21 10:00:00;;;;;;;6.55;1.40;;;13.60;99.90;;;;;;6005231;23;20058;-89
2022/09/21 10:02:27;;;;;;;;;;;13.60;99.90;;;;;;6007198;23;20024;-89
2022/09/21 10:05:07;;;;;;;10.10;1.38;;;13.50;99.90;;;;;;6003641;23;20337;-90
2022/09/21 10:07:42;;;;;;;7.38;1.40;;;13.60;99.90;;;;;;6003688;23;20197;-90
2022/09/21 10:10:36;;;;;;;8.55;1.50;;;13.60;99.90;;;;;;6005816;23;20027;-90
2022/09/21 10:13:06;;;;;;;6.97;1.20;;;13.70;99.90;;;;;;5981851;23;20012;-89
2022/09/21 10:15:32;;;;;;;6.53;1.23;;;13.90;99.90;;;;;;6004075;23;20016;-91
2022/09/21 10:18:20;;;;;;;11.88;1.75;;;13.90;99.90;;;;;;6005492;23;20023;-89
2022/09/21 10:20:58;;;;;;;6.68;1.20;;;14.00;99.90;;;;;;6006733;23;20375;-90
2022/09/21 10:23:25;;;;;;;7.57;1.30;;;14.10;99.90;;;;;;6015157;23;20477;-88
2022/09/21 10:26:07;;;;;;;6.82;1.17;;;14.10;99.90;;;;;;6018458;23;20447;-87
2022/09/21 10:28:34;;;;;;;7.30;1.40;;;14.20;99.90;;;;;;6004449;23;20012;-90
2022/09/21 10:31:23;;;;;;;7.13;1.38;;;14.30;99.90;;;;;;6002932;23;20027;-89
2022/09/21 10:34:01;;;;;;;5.95;1.08;;;14.30;99.90;;;;;;6006419;23;20463;-90
2022/09/21 10:36:33;;;;;;;6.80;1.23;;;14.30;99.90;;;;;;6006159;23;20023;-88
2022/09/21 10:39:26;;;;;;;6.13;1.35;;;14.30;99.90;;;;;;6008752;23;20446;-90
2022/09/21 10:42:03;;;;;;;5.95;1.17;;;14.20;99.90;;;;;;6006656;23;20012;-91
2022/09/21 10:44:41;;;;;;;6.70;1.27;;;14.40;99.90;;;;;;5984877;23;20458;-90
2022/09/21 10:47:29;;;;;;;6.93;1.33;;;14.40;99.90;;;;;;6009126;23;20016;-93
2022/09/21 10:49:59;;;;;;;6.43;1.40;;;14.40;99.90;;;;;;6011301;23;20022;-92
2022/09/21 10:52:33;;;;;;;7.18;1.20;;;14.40;99.90;;;;;;5985861;23;20019;-90
2022/09/21 10:54:59;;;;;;;9.52;1.58;;;14.40;99.90;;;;;;6009356;23;20319;-92
2022/09/21 10:57:27;;;;;;;5.47;1.50;;;14.40;99.90;;;;;;6008950;23;20012;-94
2022/09/21 10:59:53;;;;;;;6.53;1.67;;;14.30;99.90;;;;;;6009726;23;20461;-93
2022/09/21 11:02:37;;;;;;;5.68;1.30;;;14.40;99.90;;;;;;5984965;23;20020;-93
2022/09/21 11:05:25;;;;;;;5.47;1.20;;;14.30;99.90;;;;;;5986284;23;20091;-93
2022/09/21 11:08:14;;;;;;;6.43;1.58;;;14.30;99.90;;;;;;6033703;23;20031;-93
2022/09/21 11:11:15;;;;;;;7.07;1.30;;;14.30;99.90;;;;;;5984852;23;20023;-88
2022/09/21 11:13:55;;;;;;;7.05;1.33;;;14.30;99.90;;;;;;5922240;24;20028;-96
2022/09/21 11:16:43;;;;;;;7.43;1.35;;;14.40;99.90;;;;;;5880370;24;20480;-95
2022/09/21 11:19:33;;;;;;;5.78;1.10;;;14.50;99.90;;;;;;5883652;24;20050;-95
2022/09/21 11:22:18;;;;;;;6.97;1.33;;;14.60;99.90;;;;;;5904333;24;20013;-95
2022/09/21 11:25:06;;;;;;;8.77;1.45;;;14.70;99.90;;;;;;5908738;24;20017;-95
2022/09/21 11:27:38;;;;;;;8.35;1.50;;;14.70;99.90;;;;;;5921577;24;20027;-92
2022/09/21 11:30:18;;;;;;;5.72;1.13;;;14.60;99.90;;;;;;5901749;24;20367;-92
2022/09/21 11:32:58;;;;;;;5.78;1.30;;;14.60;99.90;;;;;;5899468;24;20086;-93
2022/09/21 11:35:59;;;;;;;7.47;1.52;;;14.60;99.90;;;;;;5902167;24;20021;-91
2022/09/21 11:39:04;;;;;;;8.60;1.48;;;14.60;99.90;;;;;;5903319;24;20335;-93
2022/09/21 11:42:20;;;;;;;6.90;1.70;;;14.70;99.90;;;;;;5922045;24;20028;-91
2022/09/21 11:44:54;;;;;;;6.68;1.30;;;14.70;99.90;;;;;;5897881;24;20075;-89
2022/09/21 11:47:45;;;;;;;6.15;1.40;;;14.80;99.90;;;;;;5921703;24;20021;-90
2022/09/21 11:50:25;;;;;;;8.85;1.30;;;14.90;99.90;;;;;;5937451;23;20083;-90
2022/09/21 11:53:13;;;;;;;4.53;1.13;;;14.90;99.90;;;;;;6009546;23;20346;-92
2022/09/21 11:56:06;;;;;;;4.82;0.98;;;15.00;99.90;;;;;;6009691;23;20075;-92
2022/09/21 11:58:56;;;;;;;6.85;1.48;;;15.00;99.90;;;;;;5989684;23;20015;-91
2022/09/21 12:01:44;;;;;;;5.78;1.20;;;15.00;99.90;;;;;;6035536;23;20026;-93
2022/09/21 12:04:28;;;;;;;7.55;1.30;;;15.00;99.90;;;;;;5988871;23;20039;-93
2022/09/21 12:07:10;;;;;;;7.53;1.13;;;15.10;99.90;;;;;;6010278;23;20469;-95
2022/09/21 12:09:52;;;;;;;8.00;1.38;;;15.10;99.90;;;;;;6008431;23;20062;-95
2022/09/21 12:12:39;;;;;;;7.43;1.17;;;15.20;99.90;;;;;;5986134;23;20409;-94
2022/09/21 12:15:31;;;;;;;5.38;1.10;;;15.20;99.90;;;;;;6033060;23;20019;-94
2022/09/21 12:18:35;;;;;;;6.88;1.15;;;15.20;99.90;;;;;;5986329;23;20045;-95
2022/09/21 12:21:10;;;;;;;6.97;1.30;;;15.20;99.90;;;;;;5988042;23;20067;-95
2022/09/21 12:23:58;;;;;;;4.72;1.55;;;15.20;99.90;;;;;;5987910;23;20011;-94
2022/09/21 12:26:51;;;;;;;6.00;1.40;;;15.30;99.90;;;;;;6011993;23;20530;-94
2022/09/21 12:29:29;;;;;;;7.38;1.30;;;15.20;99.90;;;;;;5988013;23;20015;-94
2022/09/21 12:32:10;;;;;;;7.85;1.75;;;15.20;99.90;;;;;;6011956;23;20067;-94
2022/09/21 12:34:42;;;;;;;4.93;0.90;;;15.30;99.90;;;;;;5988659;23;20011;-94
2022/09/21 12:37:23;;;;;;;6.47;1.20;;;15.30;99.90;;;;;;6014339;23;20079;-94
2022/09/21 12:39:52;;;;;;;4.85;1.10;;;15.30;99.90;;;;;;6025780;23;20024;-95
2022/09/21 12:42:40;;;;;;;6.07;1.20;;;15.30;99.90;;;;;;6008735;23;20011;-92
2022/09/21 12:45:28;;;;;;;4.93;1.13;;;15.20;99.90;;;;;;5986168;23;20015;-91
2022/09/21 12:48:19;;;;;;;5.95;1.20;;;15.30;99.90;;;;;;6007086;23;20054;-91
2022/09/21 12:50:50;;;;;;;;;;;15.30;99.90;;;;;;6008412;23;20015;-92
2022/09/21 12:53:19;;;;;;;4.68;1.20;;;15.20;99.90;;;;;;5984084;23;19918;-92
2022/09/21 12:56:17;;;;;;;7.25;1.40;;;15.20;99.90;;;;;;6005986;23;20019;-92
2022/09/21 12:59:10;;;;;;;5.35;1.30;;;15.20;99.90;;;;;;5959417;23;20585;-91
2022/09/21 13:01:55;;;;;;;5.55;1.50;;;15.20;99.90;;;;;;6008744;23;20027;-91
2022/09/21 13:04:36;;;;;;;6.28;1.10;;;15.30;99.90;;;;;;5985566;23;20020;-89
2022/09/21 13:07:11;;;;;;;4.75;1.20;;;15.40;99.90;;;;;;6011916;23;20008;-92
2022/09/21 13:09:41;;;;;;;6.13;1.40;;;15.40;99.90;;;;;;6010014;23;20034;-90
2022/09/21 13:12:32;;;;;;;5.45;1.30;;;15.40;99.90;;;;;;6008047;23;20012;-92
2022/09/21 13:15:15;;;;;;;6.07;1.20;;;15.50;99.90;;;;;;6010199;23;20020;-90
2022/09/21 13:17:41;;;;;;;4.35;1.35;;;15.50;99.90;;;;;;6013414;23;20030;-92
2022/09/21 13:20:17;;;;;;;5.97;1.40;;;15.60;99.90;;;;;;6013376;23;20015;-91
2022/09/21 13:22:44;;;;;;;6.18;1.50;;;15.60;99.90;;;;;;6011741;23;20008;-90
2022/09/21 13:25:22;;;;;;;7.57;1.30;;;15.60;99.90;;;;;;6011288;23;20015;-90
2022/09/21 13:28:08;;;;;;;6.25;1.52;;;15.70;99.90;;;;;;6008552;23;20011;-92
2022/09/21 13:30:48;;;;;;;7.85;1.77;;;15.80;99.90;;;;;;6006694;23;20020;-92